Time;durP1;ratioP1;P1;durP2;ratioP2;P2;SDS_P1;SDS_P2;PMS_P1;PMS_P2;Temp;Humidity;BMP_temperature;BMP_pressure;BME280_temperature;BME280_humidity;BME280_pressure;Samples;Min_cycle;Max_cycle;Signal;HPM_P1;HPM_P2
2022/01/04 00:02:09;;;;;;;27.65;7.63;;;;;;;;;;5073016;28;20040;-71
2022/01/04 00:04:36;;;;;;;35.83;8.15;;;;;;;;;;5072449;28;20060;-83
2022/01/04 00:07:02;;;;;;;34.80;8.32;;;;;;;;;;5073116;28;20050;-72
2022/01/04 00:09:28;;;;;;;53.03;8.13;;;;;;;;;;5072153;28;20055;-71
2022/01/04 00:14:20;;;;;;;32.97;7.82;;;;;;;;;;5072811;28;20133;-70
2022/01/04 00:16:46;;;;;;;40.97;8.00;;;;;;;;;;5072277;28;20048;-73
2022/01/04 00:19:12;;;;;;;32.58;8.65;;;;;;;;;;5073593;28;20049;-72
2022/01/04 00:21:39;;;;;;;36.35;9.00;;;;;;;;;;5072392;28;20040;-74
2022/01/04 00:24:06;;;;;;;32.58;8.50;;;;;;;;;;5072556;28;20045;-75
2022/01/04 00:26:32;;;;;;;31.52;7.68;;;;;;;;;;5073570;28;20064;-70
2022/01/04 00:28:58;;;;;;;35.55;8.52;;;;;;;;;;5088196;28;20113;-69
2022/01/04 00:31:24;;;;;;;34.75;8.60;;;;;;;;;;5092697;28;20483;-73
2022/01/04 00:33:51;;;;;;;32.67;8.23;;;;;;;;;;5092109;28;20070;-72
2022/01/04 00:36:17;;;;;;;41.67;8.10;;;;;;;;;;5092792;28;20048;-71
2022/01/04 00:38:43;;;;;;;36.22;8.40;;;;;;;;;;5090422;28;20487;-72
2022/01/04 00:41:09;;;;;;;39.33;8.65;;;;;;;;;;5092934;28;20056;-71
2022/01/04 00:43:36;;;;;;;29.23;7.32;;;;;;;;;;5092561;28;20503;-72
2022/01/04 00:46:02;;;;;;;38.35;8.13;;;;;;;;;;5092151;28;20098;-71
2022/01/04 00:50:57;;;;;;;38.95;9.93;;;;;;;;;;5092216;28;20512;-70
2022/01/04 00:53:23;;;;;;;38.55;9.38;;;;;;;;;;5092878;28;20045;-71
2022/01/04 00:55:49;;;;;;;36.65;10.10;;;;;;;;;;5092146;28;20083;-74
2022/01/04 00:58:16;;;;;;;38.13;10.40;;;;;;;;;;5091622;28;20044;-69
2022/01/04 01:00:42;;;;;;;37.20;9.95;;;;;;;;;;5091739;28;20405;-68
2022/01/04 01:03:08;;;;;;;53.83;10.65;;;;;;;;;;5096184;28;20126;-68
2022/01/04 01:05:34;;;;;;;44.17;10.30;;;;;;;;;;5096512;28;20044;-68
2022/01/04 01:08:00;;;;;;;38.47;10.38;;;;;;;;;;5096313;28;20344;-69
2022/01/04 01:13:22;;;;;;;38.45;10.48;;;;;;;;;;5091136;28;20084;-71
2022/01/04 01:15:48;;;;;;;48.72;10.43;;;;;;;;;;5094429;28;20457;-69
2022/01/04 01:18:16;;;;;;;40.88;12.00;;;;;;;;;;5096246;28;20055;-68
2022/01/04 01:20:42;;;;;;;43.72;11.27;;;;;;;;;;5094464;28;20126;-68
2022/01/04 01:23:08;;;;;;;48.35;12.30;;;;;;;;;;5095554;28;20056;-70
2022/01/04 01:25:34;;;;;;;37.58;10.80;;;;;;;;;;5096213;28;20095;-69
2022/01/04 01:28:00;;;;;;;38.63;11.48;;;;;;;;;;5095478;28;20048;-69
2022/01/04 01:30:28;;;;;;;32.60;11.38;;;;;;;;;;5094335;28;20102;-70
2022/01/04 01:32:54;;;;;;;44.97;12.82;;;;;;;;;;5095404;28;20438;-69
2022/01/04 01:35:20;;;;;;;49.50;12.35;;;;;;;;;;5095932;28;20096;-71
2022/01/04 01:37:46;;;;;;;49.72;12.35;;;;;;;;;;5095838;28;20048;-70
2022/01/04 01:40:12;;;;;;;;;;;;;;;;;;5095901;28;20055;-70
2022/01/04 01:42:39;;;;;;;38.28;10.75;;;;;;;;;;5079907;28;19920;-70
2022/01/04 01:45:05;;;;;;;;;;;;;;;;;;5075512;28;20084;-72
2022/01/04 01:47:31;;;;;;;37.72;11.00;;;;;;;;;;5074509;28;19920;-69
2022/01/04 01:49:57;;;;;;;39.65;11.68;;;;;;;;;;5074598;28;20077;-72
2022/01/04 01:52:23;;;;;;;40.17;11.20;;;;;;;;;;5075698;28;20121;-71
2022/01/04 01:54:49;;;;;;;43.78;12.10;;;;;;;;;;5074955;28;20080;-71
2022/01/04 01:57:15;;;;;;;40.15;11.57;;;;;;;;;;5107134;28;20525;-72
2022/01/04 01:59:41;;;;;;;39.85;11.45;;;;;;;;;;5074760;28;20045;-71
2022/01/04 02:02:07;;;;;;;44.17;12.02;;;;;;;;;;5076718;28;20066;-70
2022/01/04 02:04:33;;;;;;;41.88;11.68;;;;;;;;;;5095304;28;20047;-73
2022/01/04 02:06:59;;;;;;;39.75;11.68;;;;;;;;;;5093560;28;20056;-71
2022/01/04 02:09:26;;;;;;;41.72;10.77;;;;;;;;;;5094741;28;20044;-70
2022/01/04 02:11:54;;;;;;;46.45;10.90;;;;;;;;;;5093674;28;20052;-71
2022/01/04 02:14:20;;;;;;;37.17;10.30;;;;;;;;;;5089102;28;20047;-74
2022/01/04 02:16:46;;;;;;;44.90;11.52;;;;;;;;;;5094903;28;20492;-70
2022/01/04 02:19:12;;;;;;;41.20;11.60;;;;;;;;;;5094365;28;20395;-70
2022/01/04 02:21:39;;;;;;;42.88;11.07;;;;;;;;;;5094274;28;20404;-71
2022/01/04 02:24:05;;;;;;;42.70;11.90;;;;;;;;;;5090551;28;20043;-74
2022/01/04 02:26:32;;;;;;;35.60;11.07;;;;;;;;;;5093096;28;20059;-70
2022/01/04 02:28:59;;;;;;;39.30;10.82;;;;;;;;;;5094280;28;20048;-71
2022/01/04 02:31:25;;;;;;;43.00;10.60;;;;;;;;;;5094845;28;20052;-72
2022/01/04 02:33:51;;;;;;;40.72;10.60;;;;;;;;;;5092991;28;20036;-72
2022/01/04 02:36:17;;;;;;;40.53;9.88;;;;;;;;;;5093885;28;20044;-71
2022/01/04 02:38:43;;;;;;;41.40;10.63;;;;;;;;;;5094693;28;20036;-72
2022/01/04 02:41:09;;;;;;;47.75;12.38;;;;;;;;;;5092595;28;20044;-71
2022/01/04 02:43:35;;;;;;;34.70;10.57;;;;;;;;;;5094688;28;20052;-71
2022/01/04 02:46:01;;;;;;;45.55;11.70;;;;;;;;;;5092078;28;20055;-71
2022/01/04 02:48:28;;;;;;;39.17;10.40;;;;;;;;;;5094052;28;20048;-72
2022/01/04 02:50:56;;;;;;;41.65;11.25;;;;;;;;;;5092887;28;20165;-71
2022/01/04 02:53:22;;;;;;;41.00;10.93;;;;;;;;;;5093824;28;20055;-71
2022/01/04 02:55:48;;;;;;;44.10;10.68;;;;;;;;;;5081906;28;20076;-71
2022/01/04 02:58:14;;;;;;;34.30;10.40;;;;;;;;;;5073249;28;20080;-73
2022/01/04 03:00:41;;;;;;;42.97;10.55;;;;;;;;;;5073859;28;20046;-71
2022/01/04 03:03:07;;;;;;;49.50;11.10;;;;;;;;;;5072801;28;20078;-72
2022/01/04 03:05:33;;;;;;;36.38;10.35;;;;;;;;;;5078751;28;20040;-70
2022/01/04 03:07:59;;;;;;;42.10;9.63;;;;;;;;;;5092666;28;20044;-72
2022/01/04 03:10:25;;;;;;;36.97;10.07;;;;;;;;;;5093937;28;20450;-72
2022/01/04 03:12:51;;;;;;;48.05;10.48;;;;;;;;;;5092771;28;20044;-70
2022/01/04 03:15:17;;;;;;;52.95;10.63;;;;;;;;;;5093338;28;20040;-71
2022/01/04 03:17:43;;;;;;;42.75;10.57;;;;;;;;;;5091770;28;20047;-71
2022/01/04 03:20:10;;;;;;;34.17;10.73;;;;;;;;;;5093081;28;20051;-70
2022/01/04 03:22:36;;;;;;;42.58;12.10;;;;;;;;;;5092952;28;20051;-71
2022/01/04 03:25:02;;;;;;;38.33;10.57;;;;;;;;;;5090706;28;20044;-70
2022/01/04 03:27:29;;;;;;;40.75;10.98;;;;;;;;;;5073474;28;20056;-70
2022/01/04 03:29:55;;;;;;;36.28;10.88;;;;;;;;;;5073282;28;20059;-71
2022/01/04 03:32:21;;;;;;;41.38;10.93;;;;;;;;;;5072193;28;20288;-70
2022/01/04 03:34:47;;;;;;;42.33;11.02;;;;;;;;;;5105115;28;20044;-70
2022/01/04 03:37:14;;;;;;;36.65;11.70;;;;;;;;;;5087984;28;20076;-69
2022/01/04 03:39:40;;;;;;;48.75;11.90;;;;;;;;;;5093179;28;20128;-71
2022/01/04 03:42:06;;;;;;;34.92;11.48;;;;;;;;;;5093073;28;20133;-69
2022/01/04 03:44:32;;;;;;;44.75;11.75;;;;;;;;;;5090912;28;20044;-69
2022/01/04 03:46:58;;;;;;;45.53;11.60;;;;;;;;;;5092494;28;20102;-70
2022/01/04 03:49:25;;;;;;;45.22;10.77;;;;;;;;;;5092278;28;20135;-70
2022/01/04 03:51:51;;;;;;;;;;;;;;;;;;5093492;28;20102;-69
2022/01/04 03:54:19;;;;;;;37.83;11.38;;;;;;;;;;5090339;28;19920;-70
2022/01/04 03:56:45;;;;;;;45.80;11.70;;;;;;;;;;5092891;28;20101;-70
2022/01/04 03:59:11;;;;;;;53.35;11.85;;;;;;;;;;5092416;28;20063;-74
2022/01/04 04:01:37;;;;;;;45.80;12.55;;;;;;;;;;5092349;28;20048;-70
2022/01/04 04:04:04;;;;;;;55.33;11.90;;;;;;;;;;5089589;28;20076;-74
2022/01/04 04:06:30;;;;;;;50.80;11.15;;;;;;;;;;5092349;28;20048;-70
2022/01/04 04:08:57;;;;;;;40.80;10.38;;;;;;;;;;5091943;28;20051;-69
2022/01/04 04:11:24;;;;;;;38.88;11.65;;;;;;;;;;5091204;28;20044;-70
2022/01/04 04:13:50;;;;;;;46.83;11.30;;;;;;;;;;5092326;28;20112;-70
2022/01/04 04:16:16;;;;;;;46.92;10.20;;;;;;;;;;5089169;28;20055;-71
2022/01/04 04:18:42;;;;;;;42.05;10.98;;;;;;;;;;5091934;28;20048;-69
2022/01/04 04:21:08;;;;;;;47.05;10.73;;;;;;;;;;5091742;28;20086;-71
2022/01/04 04:23:34;;;;;;;46.65;10.27;;;;;;;;;;5092497;28;20040;-72
2022/01/04 04:26:01;;;;;;;46.67;12.15;;;;;;;;;;5089415;28;20048;-71
2022/01/04 04:28:27;;;;;;;39.28;11.15;;;;;;;;;;5091781;28;20048;-73
2022/01/04 04:30:53;;;;;;;41.22;11.73;;;;;;;;;;5091794;28;20142;-72
2022/01/04 04:33:19;;;;;;;45.85;11.65;;;;;;;;;;5090926;28;20044;-72
2022/01/04 04:35:45;;;;;;;45.55;12.07;;;;;;;;;;5090878;28;20046;-70
2022/01/04 04:38:11;;;;;;;42.83;13.05;;;;;;;;;;5089063;28;20146;-71
2022/01/04 04:40:37;;;;;;;38.95;11.63;;;;;;;;;;5091803;28;20105;-70
2022/01/04 04:43:03;;;;;;;55.50;12.35;;;;;;;;;;5092123;28;20052;-69
2022/01/04 04:45:30;;;;;;;43.08;12.63;;;;;;;;;;5090944;28;20048;-71
2022/01/04 04:47:56;;;;;;;43.20;13.52;;;;;;;;;;5090062;28;20052;-70
2022/01/04 04:50:22;;;;;;;45.38;13.27;;;;;;;;;;5090797;28;20183;-70
2022/01/04 04:52:48;;;;;;;56.65;13.48;;;;;;;;;;5091524;28;20051;-69
2022/01/04 04:55:14;;;;;;;39.97;13.10;;;;;;;;;;5091631;28;20397;-70
2022/01/04 04:57:40;;;;;;;47.05;13.10;;;;;;;;;;5089756;28;20044;-70
2022/01/04 05:00:08;;;;;;;41.03;13.50;;;;;;;;;;5091844;28;20047;-70
2022/01/04 05:02:34;;;;;;;49.50;13.48;;;;;;;;;;5090255;28;20043;-74
2022/01/04 05:05:00;;;;;;;48.17;14.13;;;;;;;;;;5091859;28;20040;-70
2022/01/04 05:07:26;;;;;;;51.50;13.52;;;;;;;;;;5091624;28;20048;-70
2022/01/04 05:09:52;;;;;;;49.67;13.40;;;;;;;;;;5090836;28;20076;-69
2022/01/04 05:12:19;;;;;;;48.83;14.40;;;;;;;;;;5091712;28;20044;-73
2022/01/04 05:14:46;;;;;;;46.95;14.15;;;;;;;;;;5091862;28;20546;-71
2022/01/04 05:17:16;;;;;;;54.35;15.13;;;;;;;;;;5091986;28;20044;-70
2022/01/04 05:19:42;;;;;;;39.40;15.10;;;;;;;;;;5090032;28;20056;-76
2022/01/04 05:22:08;;;;;;;44.40;14.45;;;;;;;;;;5091630;28;20052;-74
2022/01/04 05:24:34;;;;;;;48.47;15.77;;;;;;;;;;5091251;28;20126;-71
2022/01/04 05:27:01;;;;;;;39.08;15.68;;;;;;;;;;5074227;28;20053;-70
2022/01/04 05:29:27;;;;;;;53.67;15.77;;;;;;;;;;5071096;28;20162;-70
2022/01/04 05:31:53;;;;;;;43.63;15.23;;;;;;;;;;5071574;28;20052;-71
2022/01/04 05:34:19;;;;;;;39.92;14.48;;;;;;;;;;5070795;28;20049;-71
2022/01/04 05:36:45;;;;;;;66.50;15.05;;;;;;;;;;5083500;28;20127;-71
2022/01/04 05:39:11;;;;;;;36.30;14.05;;;;;;;;;;5091792;28;20348;-70
2022/01/04 05:41:37;;;;;;;41.40;14.38;;;;;;;;;;5090327;28;20128;-71
2022/01/04 05:44:03;;;;;;;38.58;14.10;;;;;;;;;;5091727;28;20502;-70
2022/01/04 05:46:30;;;;;;;42.00;14.38;;;;;;;;;;5084045;28;20487;-73
2022/01/04 05:48:56;;;;;;;45.20;15.52;;;;;;;;;;5073084;28;20187;-72
2022/01/04 05:51:22;;;;;;;48.45;16.75;;;;;;;;;;5074530;28;20506;-71
2022/01/04 05:53:48;;;;;;;48.35;16.95;;;;;;;;;;5075074;28;20450;-70
2022/01/04 05:56:14;;;;;;;50.92;15.90;;;;;;;;;;5074748;28;20045;-69
2022/01/04 05:58:40;;;;;;;56.53;16.08;;;;;;;;;;5094476;28;20048;-70
2022/01/04 06:01:06;;;;;;;54.15;16.25;;;;;;;;;;5094009;28;20400;-70
2022/01/04 06:03:32;;;;;;;47.33;17.35;;;;;;;;;;5094618;28;20438;-70
2022/01/04 06:05:59;;;;;;;40.78;15.27;;;;;;;;;;5094401;28;20051;-71
2022/01/04 06:08:32;;;;;;;42.83;16.25;;;;;;;;;;5093094;28;20056;-72
2022/01/04 06:10:58;;;;;;;55.63;17.13;;;;;;;;;;5095225;28;20506;-70
2022/01/04 06:16:09;;;;;;;40.95;14.82;;;;;;;;;;5095751;28;20067;-71
2022/01/04 06:18:35;;;;;;;44.55;15.73;;;;;;;;;;5091956;28;20059;-71
2022/01/04 06:21:01;;;;;;;53.45;15.77;;;;;;;;;;5095030;28;20093;-72
2022/01/04 06:23:27;;;;;;;52.72;16.75;;;;;;;;;;5078865;28;20045;-70
2022/01/04 06:25:53;;;;;;;47.60;15.90;;;;;;;;;;5080786;28;20404;-71
2022/01/04 06:28:20;;;;;;;45.45;16.35;;;;;;;;;;5074276;28;20048;-69
2022/01/04 06:30:46;;;;;;;;;;;;;;;;;;5073813;28;20565;-70
2022/01/04 06:33:12;;;;;;;42.60;13.95;;;;;;;;;;5073948;28;19920;-70
2022/01/04 06:35:38;;;;;;;49.70;13.88;;;;;;;;;;5073156;28;20492;-70
2022/01/04 06:38:04;;;;;;;52.15;13.52;;;;;;;;;;5088613;28;20048;-71
2022/01/04 06:40:30;;;;;;;;;;;;;;;;;;5074608;28;20506;-69
2022/01/04 06:42:56;;;;;;;47.97;13.65;;;;;;;;;;5073600;28;19924;-69
2022/01/04 06:45:22;;;;;;;43.65;12.85;;;;;;;;;;5073952;28;20076;-69
2022/01/04 06:47:49;;;;;;;40.80;13.02;;;;;;;;;;5083240;28;20094;-71
2022/01/04 06:50:15;;;;;;;50.88;14.30;;;;;;;;;;5093887;28;20480;-73
2022/01/04 06:52:42;;;;;;;44.55;11.70;;;;;;;;;;5093031;28;20102;-75
2022/01/04 06:55:09;;;;;;;38.17;12.27;;;;;;;;;;5094001;28;20055;-69
2022/01/04 06:57:35;;;;;;;46.15;12.55;;;;;;;;;;5089810;28;20143;-70
2022/01/04 07:00:01;;;;;;;43.10;12.05;;;;;;;;;;5093829;28;20036;-70
2022/01/04 07:02:27;;;;;;;41.90;10.77;;;;;;;;;;5093530;28;20043;-71
2022/01/04 07:04:53;;;;;;;39.10;10.25;;;;;;;;;;5093756;28;20047;-71
2022/01/04 07:07:20;;;;;;;32.17;9.27;;;;;;;;;;5093447;28;20048;-72
2022/01/04 07:09:46;;;;;;;37.33;9.93;;;;;;;;;;5091174;28;20365;-73
2022/01/04 07:12:12;;;;;;;32.78;10.63;;;;;;;;;;5092449;28;20407;-70
2022/01/04 07:14:38;;;;;;;35.80;10.23;;;;;;;;;;5089971;28;20499;-72
2022/01/04 07:17:04;;;;;;;37.80;11.55;;;;;;;;;;5087048;28;20094;-71
2022/01/04 07:19:30;;;;;;;34.28;11.38;;;;;;;;;;5073257;28;20048;-82
2022/01/04 07:21:56;;;;;;;39.42;11.15;;;;;;;;;;5073986;28;20045;-71
2022/01/04 07:24:22;;;;;;;42.80;12.00;;;;;;;;;;5077247;28;20087;-71
2022/01/04 07:26:48;;;;;;;39.05;11.25;;;;;;;;;;5086636;28;20458;-70
2022/01/04 07:29:14;;;;;;;38.75;12.15;;;;;;;;;;5093090;28;20043;-73
2022/01/04 07:31:41;;;;;;;38.95;12.93;;;;;;;;;;5092880;28;20411;-70
2022/01/04 07:34:07;;;;;;;47.65;13.23;;;;;;;;;;5092152;28;20036;-71
2022/01/04 07:36:33;;;;;;;45.20;13.13;;;;;;;;;;5092311;28;20044;-72
2022/01/04 07:38:59;;;;;;;39.88;12.38;;;;;;;;;;5093611;28;20050;-72
2022/01/04 07:41:26;;;;;;;37.78;11.05;;;;;;;;;;5092308;28;20449;-72
2022/01/04 07:43:53;;;;;;;42.53;11.90;;;;;;;;;;5092853;28;20079;-72
2022/01/04 07:46:19;;;;;;;42.03;10.90;;;;;;;;;;5079312;28;20053;-72
2022/01/04 07:48:47;;;;;;;30.38;9.40;;;;;;;;;;5072501;28;20041;-72
2022/01/04 07:51:13;;;;;;;38.03;10.23;;;;;;;;;;5072993;28;20512;-71
2022/01/04 07:53:39;;;;;;;38.88;9.95;;;;;;;;;;5072568;28;20488;-72
2022/01/04 07:56:05;;;;;;;42.00;9.77;;;;;;;;;;5073795;28;20045;-70
2022/01/04 07:58:31;;;;;;;31.30;8.00;;;;;;;;;;5073095;28;20071;-70
2022/01/04 08:00:57;;;;;;;30.63;8.88;;;;;;;;;;5073205;28;20043;-71
2022/01/04 08:03:23;;;;;;;44.03;9.45;;;;;;;;;;5072302;28;20473;-71
2022/01/04 08:05:50;;;;;;;26.95;8.77;;;;;;;;;;5072093;28;20044;-71
2022/01/04 08:08:16;;;;;;;31.58;9.80;;;;;;;;;;5072359;28;20044;-70
2022/01/04 08:10:44;;;;;;;33.72;9.40;;;;;;;;;;5087810;28;20048;-72
2022/01/04 08:13:10;;;;;;;40.38;9.80;;;;;;;;;;5076341;28;20385;-71
2022/01/04 08:15:36;;;;;;;40.03;9.60;;;;;;;;;;5072052;28;20052;-72
2022/01/04 08:18:02;;;;;;;37.83;10.43;;;;;;;;;;5105396;28;20049;-71
2022/01/04 08:20:28;;;;;;;37.42;9.18;;;;;;;;;;5071813;28;20045;-71
2022/01/04 08:22:55;;;;;;;34.85;9.57;;;;;;;;;;5104005;28;20052;-71
2022/01/04 08:25:21;;;;;;;36.67;9.07;;;;;;;;;;5090971;28;20502;-71
2022/01/04 08:27:48;;;;;;;29.98;7.85;;;;;;;;;;5086779;28;20052;-70
2022/01/04 08:30:14;;;;;;;34.83;9.10;;;;;;;;;;5070751;28;20048;-70
2022/01/04 08:32:41;;;;;;;31.58;9.27;;;;;;;;;;5069233;28;20476;-71
2022/01/04 08:35:07;;;;;;;43.13;9.30;;;;;;;;;;5069937;28;20044;-70
2022/01/04 08:37:34;;;;;;;34.13;8.95;;;;;;;;;;5069576;28;20123;-70
2022/01/04 08:40:00;;;;;;;33.80;10.00;;;;;;;;;;5071441;28;20072;-71
2022/01/04 08:42:27;;;;;;;36.40;10.18;;;;;;;;;;5080993;28;20043;-71
2022/01/04 08:44:55;;;;;;;35.28;10.60;;;;;;;;;;5089690;28;20361;-70
2022/01/04 08:47:21;;;;;;;35.55;10.40;;;;;;;;;;5090070;28;20048;-70
2022/01/04 08:49:48;;;;;;;;;;;;;;;;;;5090754;28;20048;-71
2022/01/04 08:52:14;;;;;;;42.70;10.25;;;;;;;;;;5086315;28;19924;-69
2022/01/04 08:54:40;;;;;;;26.77;7.90;;;;;;;;;;5070866;28;20040;-73
2022/01/04 08:57:07;;;;;;;24.13;6.13;;;;;;;;;;5072440;28;20070;-73
2022/01/04 08:59:34;;;;;;;20.30;5.05;;;;;;;;;;5071328;28;20373;-77
2022/01/04 09:02:00;;;;;;;20.48;3.95;;;;;;;;;;5073884;28;20049;-80
2022/01/04 09:04:26;;;;;;;14.40;3.47;;;;;;;;;;5076096;28;20041;-78
2022/01/04 09:06:52;;;;;;;10.70;2.40;;;;;;;;;;5071424;28;20071;-79
2022/01/04 09:09:19;;;;;;;15.73;2.40;;;;;;;;;;5071731;28;20135;-79
2022/01/04 09:11:45;;;;;;;14.38;3.20;;;;;;;;;;5103104;28;20059;-81
2022/01/04 09:19:52;;;;;;;13.13;2.60;;;;;;;;;;5050173;28;20140;-74
2022/01/04 09:22:18;;;;;;;14.98;2.50;;;;;;;;;;5051011;28;20056;-75
2022/01/04 09:24:44;;;;;;;16.10;3.17;;;;;;;;;;5053807;28;20041;-76
2022/01/04 09:27:10;;;;;;;13.05;2.35;;;;;;;;;;5072199;28;20063;-73
2022/01/04 09:29:36;;;;;;;;;;;;;;;;;;5073256;28;20057;-76
2022/01/04 09:32:04;;;;;;;17.83;3.03;;;;;;;;;;5074684;28;19931;-76
2022/01/04 09:34:30;;;;;;;18.10;2.50;;;;;;;;;;5074011;28;20204;-75
2022/01/04 09:36:56;;;;;;;15.70;2.47;;;;;;;;;;5073567;28;20404;-78
2022/01/04 09:39:23;;;;;;;12.70;2.60;;;;;;;;;;5074058;28;20044;-79
2022/01/04 09:41:50;;;;;;;15.48;2.28;;;;;;;;;;5085028;28;20456;-78
2022/01/04 09:44:16;;;;;;;10.98;2.50;;;;;;;;;;5092642;28;20085;-76
2022/01/04 09:46:42;;;;;;;11.05;2.47;;;;;;;;;;5093738;28;20131;-75
2022/01/04 09:49:09;;;;;;;14.27;2.40;;;;;;;;;;5093551;28;20047;-77
2022/01/04 09:51:36;;;;;;;10.38;1.92;;;;;;;;;;5086850;28;20079;-78
2022/01/04 09:54:03;;;;;;;16.40;2.17;;;;;;;;;;5084673;28;20093;-78
2022/01/04 09:56:29;;;;;;;10.05;2.00;;;;;;;;;;5090840;28;20395;-79
2022/01/04 09:58:59;;;;;;;9.80;2.40;;;;;;;;;;5092149;28;20055;-78
2022/01/04 10:01:34;;;;;;;15.07;2.55;;;;;;;;;;5093878;28;20146;-77
2022/01/04 10:04:00;;;;;;;12.98;2.65;;;;;;;;;;5091859;28;20044;-77
2022/01/04 10:06:27;;;;;;;12.65;2.40;;;;;;;;;;5091454;28;20075;-77
2022/01/04 10:08:57;;;;;;;10.57;2.10;;;;;;;;;;5093674;28;20055;-77
2022/01/04 10:11:31;;;;;;;11.52;2.47;;;;;;;;;;5085276;28;20110;-75
2022/01/04 10:13:58;;;;;;;12.30;2.15;;;;;;;;;;5072743;28;20484;-78
2022/01/04 10:16:24;;;;;;;11.35;2.70;;;;;;;;;;5116274;28;20052;-79
2022/01/04 10:18:51;;;;;;;7.28;2.00;;;;;;;;;;5107355;28;20040;-79
2022/01/04 10:21:18;;;;;;;10.20;1.90;;;;;;;;;;5083695;28;20081;-79
2022/01/04 10:23:55;;;;;;;9.32;1.90;;;;;;;;;;5072695;28;20050;-75
2022/01/04 10:26:37;;;;;;;11.38;2.08;;;;;;;;;;5074650;28;20492;-77
2022/01/04 10:29:18;;;;;;;6.82;1.70;;;;;;;;;;5072602;28;20488;-78
2022/01/04 10:31:47;;;;;;;10.35;1.70;;;;;;;;;;5074316;28;20056;-77
2022/01/04 10:34:13;;;;;;;5.22;1.70;;;;;;;;;;5072010;28;20044;-80
2022/01/04 10:36:39;;;;;;;11.73;2.00;;;;;;;;;;5072692;28;20044;-77
2022/01/04 10:39:09;;;;;;;14.38;2.28;;;;;;;;;;5072307;28;20083;-79
2022/01/04 10:41:35;;;;;;;14.20;2.25;;;;;;;;;;5073917;28;20051;-74
2022/01/04 10:44:07;;;;;;;9.25;3.05;;;;;;;;;;5072915;28;20135;-74
2022/01/04 10:46:34;;;;;;;6.97;1.88;;;;;;;;;;5072486;28;20145;-76
2022/01/04 10:49:01;;;;;;;9.80;1.70;;;;;;;;;;5087794;28;20050;-74
2022/01/04 10:51:28;;;;;;;8.73;1.83;;;;;;;;;;5074013;28;20044;-74
2022/01/04 10:53:57;;;;;;;8.07;1.70;;;;;;;;;;5072054;28;20044;-75
2022/01/04 10:56:33;;;;;;;8.13;1.42;;;;;;;;;;5074667;28;20048;-75
2022/01/04 10:59:01;;;;;;;8.45;1.50;;;;;;;;;;5091064;28;20083;-72
2022/01/04 11:01:28;;;;;;;6.43;1.40;;;;;;;;;;5092196;28;20090;-72
2022/01/04 11:03:56;;;;;;;6.93;1.40;;;;;;;;;;5092243;28;20131;-88
2022/01/04 11:06:37;;;;;;;5.18;1.60;;;;;;;;;;5092374;28;20044;-71
2022/01/04 11:09:06;;;;;;;7.53;1.90;;;;;;;;;;5074459;28;20044;-72
2022/01/04 11:11:33;;;;;;;4.13;1.48;;;;;;;;;;5071845;28;20044;-73
2022/01/04 11:13:59;;;;;;;;;;;;;;;;;;5071787;28;20518;-73
2022/01/04 11:16:26;;;;;;;6.82;1.75;;;;;;;;;;5072064;28;20007;-76
2022/01/04 11:18:54;;;;;;;10.48;1.95;;;;;;;;;;5073068;28;20492;-76
2022/01/04 11:21:21;;;;;;;7.80;2.00;;;;;;;;;;5071380;28;20056;-80
2022/01/04 11:23:48;;;;;;;12.27;1.90;;;;;;;;;;5070810;28;20081;-71
2022/01/04 11:26:15;;;;;;;10.52;1.90;;;;;;;;;;5092411;28;20057;-72
2022/01/04 11:28:42;;;;;;;14.75;2.10;;;;;;;;;;5066868;28;20049;-72
2022/01/04 11:31:13;;;;;;;7.75;2.03;;;;;;;;;;5071209;28;20131;-73
2022/01/04 11:34:00;;;;;;;9.23;1.90;;;;;;;;;;5087015;28;20040;-73
2022/01/04 11:36:27;;;;;;;13.00;2.75;;;;;;;;;;5090400;28;20054;-71
2022/01/04 11:38:53;;;;;;;7.65;1.80;;;;;;;;;;5090406;28;20381;-70
2022/01/04 11:41:21;;;;;;;10.48;2.17;;;;;;;;;;5090986;28;20044;-70
2022/01/04 11:43:47;;;;;;;10.40;2.03;;;;;;;;;;5085450;28;20040;-71
2022/01/04 11:46:31;;;;;;;9.73;2.03;;;;;;;;;;5068753;28;20098;-71
2022/01/04 11:49:08;;;;;;;13.57;2.28;;;;;;;;;;5071264;28;20045;-72
2022/01/04 11:51:35;;;;;;;11.35;2.03;;;;;;;;;;5070892;28;20542;-71
2022/01/04 11:54:16;;;;;;;9.00;2.25;;;;;;;;;;5072160;28;20091;-70
2022/01/04 11:56:50;;;;;;;12.68;2.70;;;;;;;;;;5070682;28;20055;-71
2022/01/04 11:59:19;;;;;;;8.00;1.80;;;;;;;;;;5075451;28;20080;-69
2022/01/04 12:01:45;;;;;;;8.60;1.70;;;;;;;;;;5103571;28;20048;-70
2022/01/04 12:04:11;;;;;;;9.43;2.40;;;;;;;;;;5070471;28;20097;-70
2022/01/04 12:06:42;;;;;;;14.57;2.30;;;;;;;;;;5071262;28;20462;-71
2022/01/04 12:09:27;;;;;;;10.00;2.08;;;;;;;;;;5074484;28;20048;-71
2022/01/04 12:11:53;;;;;;;15.57;2.60;;;;;;;;;;5089461;28;20044;-69
2022/01/04 12:14:24;;;;;;;13.38;2.35;;;;;;;;;;5090340;28;20048;-69
2022/01/04 12:17:06;;;;;;;16.38;2.50;;;;;;;;;;5090359;28;20074;-68
2022/01/04 12:19:44;;;;;;;19.40;3.17;;;;;;;;;;5088998;28;20495;-68
2022/01/04 12:22:11;;;;;;;9.52;2.33;;;;;;;;;;5088778;28;20043;-71
2022/01/04 12:24:44;;;;;;;17.77;2.72;;;;;;;;;;5090118;28;20407;-69
2022/01/04 12:27:12;;;;;;;10.77;2.10;;;;;;;;;;5089228;28;20093;-68
2022/01/04 12:29:38;;;;;;;13.07;2.20;;;;;;;;;;5090323;28;20048;-71
2022/01/04 12:32:07;;;;;;;;;;;;;;;;;;5071101;28;20094;-75
2022/01/04 12:34:38;;;;;;;14.45;2.50;;;;;;;;;;5069279;28;19920;-80
2022/01/04 12:37:05;;;;;;;15.73;2.80;;;;;;;;;;5070055;28;20446;-73
2022/01/04 12:39:33;;;;;;;12.57;2.25;;;;;;;;;;5068884;28;20385;-79
2022/01/04 12:41:59;;;;;;;13.80;2.38;;;;;;;;;;5071697;28;20040;-76
2022/01/04 12:44:27;;;;;;;14.50;2.53;;;;;;;;;;5068756;28;20040;-77
2022/01/04 12:46:53;;;;;;;13.60;2.35;;;;;;;;;;5069189;28;20052;-77
2022/01/04 12:49:19;;;;;;;;;;;;;;;;;;5070553;28;20381;-76
2022/01/04 12:51:52;;;;;;;8.80;2.05;;;;;;;;;;5073992;28;19920;-79
2022/01/04 12:54:22;;;;;;;15.70;3.38;;;;;;;;;;5088768;28;20051;-75
2022/01/04 12:56:50;;;;;;;12.05;3.03;;;;;;;;;;5082081;28;20047;-78
2022/01/04 12:59:26;;;;;;;16.55;2.90;;;;;;;;;;5076295;28;20056;-75
2022/01/04 13:01:52;;;;;;;12.82;2.30;;;;;;;;;;5092683;28;20040;-72
2022/01/04 13:04:23;;;;;;;10.98;2.40;;;;;;;;;;5092734;28;20046;-70
2022/01/04 13:06:49;;;;;;;13.73;2.60;;;;;;;;;;5094220;28;20097;-70
2022/01/04 13:09:22;;;;;;;13.52;2.65;;;;;;;;;;5093981;28;20514;-76
2022/01/04 13:11:49;;;;;;;17.00;2.90;;;;;;;;;;5091401;28;20048;-79
2022/01/04 13:14:20;;;;;;;14.98;2.50;;;;;;;;;;5076896;28;20080;-75
2022/01/04 13:16:47;;;;;;;13.23;3.00;;;;;;;;;;5072836;28;20373;-73
2022/01/04 13:19:14;;;;;;;10.80;2.17;;;;;;;;;;5072179;28;20048;-74
2022/01/04 13:21:41;;;;;;;11.68;2.22;;;;;;;;;;5073934;28;20059;-74
2022/01/04 13:24:08;;;;;;;15.90;3.20;;;;;;;;;;5073907;28;20132;-74
2022/01/04 13:26:35;;;;;;;13.15;2.30;;;;;;;;;;5073191;28;20068;-73
2022/01/04 13:29:01;;;;;;;;;;;;;;;;;;5089949;28;20094;-73
2022/01/04 13:31:28;;;;;;;12.48;3.33;;;;;;;;;;5073515;28;19971;-72
2022/01/04 13:33:55;;;;;;;19.50;2.50;;;;;;;;;;5074585;28;20037;-73
2022/01/04 13:36:22;;;;;;;14.15;2.85;;;;;;;;;;5073332;28;20052;-77
2022/01/04 13:38:51;;;;;;;12.18;2.38;;;;;;;;;;5072994;28;20346;-72
2022/01/04 13:41:32;;;;;;;14.07;3.20;;;;;;;;;;5073403;28;20048;-72
2022/01/04 13:44:03;;;;;;;17.65;2.65;;;;;;;;;;5073300;28;21571;-70
2022/01/04 13:46:29;;;;;;;12.68;2.30;;;;;;;;;;5072923;28;20048;-69
2022/01/04 13:48:56;;;;;;;16.23;2.58;;;;;;;;;;5073509;28;20145;-73
2022/01/04 13:51:26;;;;;;;11.32;2.40;;;;;;;;;;5073272;28;20058;-73
2022/01/04 13:53:59;;;;;;;12.95;2.58;;;;;;;;;;5072164;28;20044;-71
2022/01/04 13:56:30;;;;;;;15.13;2.67;;;;;;;;;;5073816;28;20036;-71
2022/01/04 13:58:58;;;;;;;11.65;2.47;;;;;;;;;;5072333;28;20075;-72
2022/01/04 14:01:41;;;;;;;14.07;2.38;;;;;;;;;;5072746;28;20044;-69
2022/01/04 14:04:16;;;;;;;14.50;2.95;;;;;;;;;;5105927;28;20071;-70
2022/01/04 14:06:52;;;;;;;13.30;2.40;;;;;;;;;;5089802;28;20040;-70
2022/01/04 14:09:18;;;;;;;12.93;2.95;;;;;;;;;;5091404;28;20048;-71
2022/01/04 14:11:48;;;;;;;15.27;3.10;;;;;;;;;;5093426;28;20044;-71
2022/01/04 14:14:22;;;;;;;15.32;2.90;;;;;;;;;;5093527;28;20044;-69
2022/01/04 14:16:50;;;;;;;12.82;2.50;;;;;;;;;;5091599;28;20050;-70
2022/01/04 14:19:20;;;;;;;17.48;3.10;;;;;;;;;;5091879;28;20138;-71
2022/01/04 14:21:54;;;;;;;15.40;2.67;;;;;;;;;;5093119;28;20400;-69
2022/01/04 14:24:39;;;;;;;15.38;2.67;;;;;;;;;;5092881;28;20052;-72
2022/01/04 14:27:22;;;;;;;14.45;2.67;;;;;;;;;;5092575;28;20143;-69
2022/01/04 14:29:49;;;;;;;16.10;2.50;;;;;;;;;;5090833;28;20083;-69
2022/01/04 14:32:24;;;;;;;12.77;2.50;;;;;;;;;;5092617;28;20047;-71
2022/01/04 14:34:51;;;;;;;10.88;2.60;;;;;;;;;;5092955;28;20097;-79
2022/01/04 14:37:17;;;;;;;12.35;2.85;;;;;;;;;;5092809;28;20047;-70
2022/01/04 14:39:43;;;;;;;13.05;2.55;;;;;;;;;;5089323;28;20100;-71
2022/01/04 14:42:10;;;;;;;13.30;2.53;;;;;;;;;;5092688;28;20130;-70
2022/01/04 14:44:36;;;;;;;14.43;2.42;;;;;;;;;;5091751;28;20051;-71
2022/01/04 14:47:03;;;;;;;14.13;3.08;;;;;;;;;;5092491;28;20054;-71